Terminal Aerodrome Forecast
Issued by NWS Sioux Falls, SD

Home | Current Version | Previous Version | Text Only | Print | Product List | Glossary On
Versions: 1 2 3 4 5 6 7 8 9 10 11 12 13 14 15 16 17
719
FTUS43 KFSD 221415 AAA
TAFFSD
TAF AMD
KFSD 221415Z 2214/2312 01005KT P6SM SCT010 BKN250
      TEMPO 2214/2216 BKN010
     FM221800 33008KT P6SM FEW250
     FM230300 32004KT P6SM FEW250=

USA.gov is the U.S. government's official web portal to all federal, state and local government web resources and services.